sensor_id;sensor_type;location;lat;lon;timestamp;P1;durP1;ratioP1;P2;durP2;ratioP2
16484;SDS011;8353;47.856;12.344;2023-04-12T00:02:43;2.00;;;1.00;;
16484;SDS011;8353;47.856;12.344;2023-04-12T00:05:29;1.17;;;0.90;;
16484;SDS011;8353;47.856;12.344;2023-04-12T00:08:17;1.63;;;1.50;;
16484;SDS011;8353;47.856;12.344;2023-04-12T00:11:08;2.13;;;1.00;;
16484;SDS011;8353;47.856;12.344;2023-04-12T00:13:55;9.43;;;1.87;;
16484;SDS011;8353;47.856;12.344;2023-04-12T00:16:42;0.90;;;0.80;;
16484;SDS011;8353;47.856;12.344;2023-04-12T00:19:29;1.17;;;0.80;;
16484;SDS011;8353;47.856;12.344;2023-04-12T00:22:16;0.90;;;0.87;;
16484;SDS011;8353;47.856;12.344;2023-04-12T00:25:06;1.77;;;1.13;;
16484;SDS011;8353;47.856;12.344;2023-04-12T00:27:53;1.57;;;1.00;;
16484;SDS011;8353;47.856;12.344;2023-04-12T00:30:40;1.10;;;1.00;;
16484;SDS011;8353;47.856;12.344;2023-04-12T00:33:27;1.70;;;1.07;;
16484;SDS011;8353;47.856;12.344;2023-04-12T00:36:14;1.10;;;0.90;;
16484;SDS011;8353;47.856;12.344;2023-04-12T00:39:01;1.10;;;1.00;;
16484;SDS011;8353;47.856;12.344;2023-04-12T00:41:49;1.07;;;0.73;;
16484;SDS011;8353;47.856;12.344;2023-04-12T00:44:36;1.23;;;0.87;;
16484;SDS011;8353;47.856;12.344;2023-04-12T00:47:23;1.40;;;0.80;;
16484;SDS011;8353;47.856;12.344;2023-04-12T00:50:11;2.63;;;1.10;;
16484;SDS011;8353;47.856;12.344;2023-04-12T00:52:59;1.67;;;1.00;;
16484;SDS011;8353;47.856;12.344;2023-04-12T00:55:46;1.23;;;0.93;;
16484;SDS011;8353;47.856;12.344;2023-04-12T00:58:36;1.10;;;0.90;;
16484;SDS011;8353;47.856;12.344;2023-04-12T01:01:23;0.90;;;0.80;;
16484;SDS011;8353;47.856;12.344;2023-04-12T01:04:12;1.00;;;0.80;;
16484;SDS011;8353;47.856;12.344;2023-04-12T01:07:06;2.13;;;1.00;;
16484;SDS011;8353;47.856;12.344;2023-04-12T01:10:03;1.57;;;1.10;;
16484;SDS011;8353;47.856;12.344;2023-04-12T01:12:57;1.00;;;0.90;;
16484;SDS011;8353;47.856;12.344;2023-04-12T01:15:51;2.30;;;1.10;;
16484;SDS011;8353;47.856;12.344;2023-04-12T01:18:44;1.93;;;0.93;;
16484;SDS011;8353;47.856;12.344;2023-04-12T01:21:39;1.10;;;0.90;;
16484;SDS011;8353;47.856;12.344;2023-04-12T01:24:36;0.93;;;0.63;;
16484;SDS011;8353;47.856;12.344;2023-04-12T01:27:36;0.90;;;0.80;;
16484;SDS011;8353;47.856;12.344;2023-04-12T01:30:28;1.40;;;0.70;;
16484;SDS011;8353;47.856;12.344;2023-04-12T01:33:16;0.90;;;0.80;;
16484;SDS011;8353;47.856;12.344;2023-04-12T01:36:08;1.60;;;0.90;;
16484;SDS011;8353;47.856;12.344;2023-04-12T01:38:57;0.70;;;0.70;;
16484;SDS011;8353;47.856;12.344;2023-04-12T01:41:45;0.70;;;0.70;;
16484;SDS011;8353;47.856;12.344;2023-04-12T01:44:34;2.20;;;0.90;;
16484;SDS011;8353;47.856;12.344;2023-04-12T01:47:21;1.97;;;1.10;;
16484;SDS011;8353;47.856;12.344;2023-04-12T01:50:11;1.60;;;1.00;;
16484;SDS011;8353;47.856;12.344;2023-04-12T01:53:05;1.17;;;0.70;;
16484;SDS011;8353;47.856;12.344;2023-04-12T01:55:59;1.63;;;0.80;;
16484;SDS011;8353;47.856;12.344;2023-04-12T01:58:52;1.50;;;0.67;;
16484;SDS011;8353;47.856;12.344;2023-04-12T02:01:43;1.63;;;0.80;;
16484;SDS011;8353;47.856;12.344;2023-04-12T02:04:30;1.07;;;0.97;;
16484;SDS011;8353;47.856;12.344;2023-04-12T02:07:18;1.13;;;0.90;;
16484;SDS011;8353;47.856;12.344;2023-04-12T02:10:11;4.50;;;1.70;;
16484;SDS011;8353;47.856;12.344;2023-04-12T02:12:59;1.40;;;0.80;;
16484;SDS011;8353;47.856;12.344;2023-04-12T02:15:47;1.47;;;0.80;;
16484;SDS011;8353;47.856;12.344;2023-04-12T02:18:36;0.73;;;0.70;;
16484;SDS011;8353;47.856;12.344;2023-04-12T02:21:26;0.70;;;0.70;;
16484;SDS011;8353;47.856;12.344;2023-04-12T02:24:13;1.00;;;0.90;;
16484;SDS011;8353;47.856;12.344;2023-04-12T02:27:01;1.87;;;0.97;;
16484;SDS011;8353;47.856;12.344;2023-04-12T02:29:47;1.30;;;1.10;;
16484;SDS011;8353;47.856;12.344;2023-04-12T02:32:34;0.73;;;0.70;;
16484;SDS011;8353;47.856;12.344;2023-04-12T02:35:30;2.00;;;1.03;;
16484;SDS011;8353;47.856;12.344;2023-04-12T02:38:17;2.27;;;1.10;;
16484;SDS011;8353;47.856;12.344;2023-04-12T02:41:04;1.10;;;0.90;;
16484;SDS011;8353;47.856;12.344;2023-04-12T02:43:51;1.73;;;1.20;;
16484;SDS011;8353;47.856;12.344;2023-04-12T02:46:38;2.10;;;1.07;;
16484;SDS011;8353;47.856;12.344;2023-04-12T02:49:25;1.07;;;0.90;;
16484;SDS011;8353;47.856;12.344;2023-04-12T02:52:15;0.80;;;0.70;;
16484;SDS011;8353;47.856;12.344;2023-04-12T02:55:02;1.47;;;1.27;;
16484;SDS011;8353;47.856;12.344;2023-04-12T02:57:50;1.27;;;1.00;;
16484;SDS011;8353;47.856;12.344;2023-04-12T03:00:37;2.63;;;1.33;;
16484;SDS011;8353;47.856;12.344;2023-04-12T03:03:28;1.90;;;1.13;;
16484;SDS011;8353;47.856;12.344;2023-04-12T03:06:16;1.00;;;0.90;;
16484;SDS011;8353;47.856;12.344;2023-04-12T03:09:04;3.17;;;1.23;;
16484;SDS011;8353;47.856;12.344;2023-04-12T03:11:51;1.30;;;1.20;;
16484;SDS011;8353;47.856;12.344;2023-04-12T03:14:38;1.47;;;1.30;;
16484;SDS011;8353;47.856;12.344;2023-04-12T03:17:26;1.10;;;0.93;;
16484;SDS011;8353;47.856;12.344;2023-04-12T03:20:13;1.33;;;1.10;;
16484;SDS011;8353;47.856;12.344;2023-04-12T03:23:01;1.30;;;1.10;;
16484;SDS011;8353;47.856;12.344;2023-04-12T03:25:49;1.00;;;0.90;;
16484;SDS011;8353;47.856;12.344;2023-04-12T03:28:36;1.93;;;1.17;;
16484;SDS011;8353;47.856;12.344;2023-04-12T03:31:23;1.43;;;0.87;;
16484;SDS011;8353;47.856;12.344;2023-04-12T03:34:11;1.50;;;1.00;;
16484;SDS011;8353;47.856;12.344;2023-04-12T03:36:59;2.10;;;1.30;;
16484;SDS011;8353;47.856;12.344;2023-04-12T03:39:46;0.93;;;0.80;;
16484;SDS011;8353;47.856;12.344;2023-04-12T03:42:34;1.90;;;1.10;;
16484;SDS011;8353;47.856;12.344;2023-04-12T03:45:21;2.13;;;1.60;;
16484;SDS011;8353;47.856;12.344;2023-04-12T03:48:10;4.83;;;1.60;;
16484;SDS011;8353;47.856;12.344;2023-04-12T03:50:57;2.63;;;1.20;;
16484;SDS011;8353;47.856;12.344;2023-04-12T03:53:44;2.80;;;1.10;;
16484;SDS011;8353;47.856;12.344;2023-04-12T03:56:32;2.20;;;1.00;;
16484;SDS011;8353;47.856;12.344;2023-04-12T03:59:20;1.57;;;1.00;;
16484;SDS011;8353;47.856;12.344;2023-04-12T04:02:07;0.80;;;0.80;;
16484;SDS011;8353;47.856;12.344;2023-04-12T04:04:54;2.70;;;1.10;;
16484;SDS011;8353;47.856;12.344;2023-04-12T04:07:41;1.57;;;0.90;;
16484;SDS011;8353;47.856;12.344;2023-04-12T04:10:28;2.23;;;1.20;;
16484;SDS011;8353;47.856;12.344;2023-04-12T04:13:15;0.80;;;0.70;;
16484;SDS011;8353;47.856;12.344;2023-04-12T04:16:04;0.90;;;0.80;;
16484;SDS011;8353;47.856;12.344;2023-04-12T04:18:53;1.63;;;1.00;;
16484;SDS011;8353;47.856;12.344;2023-04-12T04:21:41;0.97;;;0.90;;
16484;SDS011;8353;47.856;12.344;2023-04-12T04:24:28;2.73;;;1.20;;
16484;SDS011;8353;47.856;12.344;2023-04-12T04:27:14;2.23;;;1.17;;
16484;SDS011;8353;47.856;12.344;2023-04-12T04:30:02;3.17;;;1.10;;
16484;SDS011;8353;47.856;12.344;2023-04-12T04:32:56;1.43;;;1.00;;
16484;SDS011;8353;47.856;12.344;2023-04-12T04:35:43;0.80;;;0.77;;
16484;SDS011;8353;47.856;12.344;2023-04-12T04:38:30;2.33;;;1.70;;
16484;SDS011;8353;47.856;12.344;2023-04-12T04:41:17;7.43;;;4.63;;
16484;SDS011;8353;47.856;12.344;2023-04-12T04:44:06;1.87;;;1.60;;
16484;SDS011;8353;47.856;12.344;2023-04-12T04:46:54;3.07;;;2.03;;
16484;SDS011;8353;47.856;12.344;2023-04-12T04:49:43;2.50;;;1.57;;
16484;SDS011;8353;47.856;12.344;2023-04-12T04:52:32;3.47;;;2.50;;
16484;SDS011;8353;47.856;12.344;2023-04-12T04:55:19;1.83;;;1.60;;
16484;SDS011;8353;47.856;12.344;2023-04-12T04:58:06;6.93;;;4.20;;
16484;SDS011;8353;47.856;12.344;2023-04-12T05:00:55;6.53;;;4.47;;
16484;SDS011;8353;47.856;12.344;2023-04-12T05:03:42;5.70;;;3.87;;
16484;SDS011;8353;47.856;12.344;2023-04-12T05:06:31;4.20;;;2.53;;
16484;SDS011;8353;47.856;12.344;2023-04-12T05:09:18;9.00;;;6.90;;
16484;SDS011;8353;47.856;12.344;2023-04-12T05:12:05;3.23;;;2.43;;
16484;SDS011;8353;47.856;12.344;2023-04-12T05:14:52;4.03;;;2.20;;
16484;SDS011;8353;47.856;12.344;2023-04-12T05:17:39;5.27;;;2.50;;
16484;SDS011;8353;47.856;12.344;2023-04-12T05:20:27;2.70;;;2.23;;
16484;SDS011;8353;47.856;12.344;2023-04-12T05:23:15;3.17;;;2.07;;
16484;SDS011;8353;47.856;12.344;2023-04-12T05:26:02;3.27;;;2.20;;
16484;SDS011;8353;47.856;12.344;2023-04-12T05:28:50;3.03;;;2.20;;
16484;SDS011;8353;47.856;12.344;2023-04-12T05:31:38;2.77;;;1.40;;
16484;SDS011;8353;47.856;12.344;2023-04-12T05:34:25;1.97;;;1.50;;
16484;SDS011;8353;47.856;12.344;2023-04-12T05:37:11;3.50;;;1.70;;
16484;SDS011;8353;47.856;12.344;2023-04-12T05:40:01;4.47;;;3.10;;
16484;SDS011;8353;47.856;12.344;2023-04-12T05:42:52;5.50;;;3.40;;
16484;SDS011;8353;47.856;12.344;2023-04-12T05:45:40;3.17;;;2.87;;
16484;SDS011;8353;47.856;12.344;2023-04-12T05:48:27;7.67;;;3.57;;
16484;SDS011;8353;47.856;12.344;2023-04-12T05:51:16;4.17;;;2.27;;
16484;SDS011;8353;47.856;12.344;2023-04-12T05:54:03;4.13;;;3.20;;
16484;SDS011;8353;47.856;12.344;2023-04-12T05:56:52;2.70;;;2.13;;
16484;SDS011;8353;47.856;12.344;2023-04-12T05:59:40;3.27;;;2.40;;
16484;SDS011;8353;47.856;12.344;2023-04-12T06:02:26;4.13;;;3.03;;
16484;SDS011;8353;47.856;12.344;2023-04-12T06:05:09;2.20;;;1.73;;
16484;SDS011;8353;47.856;12.344;2023-04-12T06:07:57;1.50;;;1.40;;
16484;SDS011;8353;47.856;12.344;2023-04-12T06:10:46;4.10;;;2.20;;
16484;SDS011;8353;47.856;12.344;2023-04-12T06:13:34;2.57;;;1.73;;
16484;SDS011;8353;47.856;12.344;2023-04-12T06:16:23;1.83;;;1.30;;
16484;SDS011;8353;47.856;12.344;2023-04-12T06:19:09;3.20;;;1.57;;
16484;SDS011;8353;47.856;12.344;2023-04-12T06:21:56;3.13;;;1.30;;
16484;SDS011;8353;47.856;12.344;2023-04-12T06:24:43;2.13;;;1.10;;
16484;SDS011;8353;47.856;12.344;2023-04-12T06:27:30;1.47;;;1.07;;
16484;SDS011;8353;47.856;12.344;2023-04-12T06:30:23;1.93;;;1.30;;
16484;SDS011;8353;47.856;12.344;2023-04-12T06:33:13;3.50;;;1.57;;
16484;SDS011;8353;47.856;12.344;2023-04-12T06:36:01;2.20;;;1.43;;
16484;SDS011;8353;47.856;12.344;2023-04-12T06:38:47;2.30;;;1.00;;
16484;SDS011;8353;47.856;12.344;2023-04-12T06:41:36;1.80;;;1.00;;
16484;SDS011;8353;47.856;12.344;2023-04-12T06:44:23;2.10;;;1.50;;
16484;SDS011;8353;47.856;12.344;2023-04-12T06:47:12;2.80;;;1.30;;
16484;SDS011;8353;47.856;12.344;2023-04-12T06:50:00;1.33;;;1.03;;
16484;SDS011;8353;47.856;12.344;2023-04-12T06:52:47;1.67;;;1.00;;
16484;SDS011;8353;47.856;12.344;2023-04-12T06:55:35;3.63;;;1.23;;
16484;SDS011;8353;47.856;12.344;2023-04-12T06:58:23;2.40;;;1.37;;
16484;SDS011;8353;47.856;12.344;2023-04-12T07:01:12;1.60;;;1.00;;
16484;SDS011;8353;47.856;12.344;2023-04-12T07:04:00;2.10;;;1.07;;
16484;SDS011;8353;47.856;12.344;2023-04-12T07:06:47;3.03;;;1.90;;
16484;SDS011;8353;47.856;12.344;2023-04-12T07:09:34;1.40;;;1.07;;
16484;SDS011;8353;47.856;12.344;2023-04-12T07:12:26;1.20;;;0.97;;
16484;SDS011;8353;47.856;12.344;2023-04-12T07:15:13;1.63;;;1.10;;
16484;SDS011;8353;47.856;12.344;2023-04-12T07:18:00;1.13;;;0.90;;
16484;SDS011;8353;47.856;12.344;2023-04-12T07:20:48;1.37;;;0.80;;
16484;SDS011;8353;47.856;12.344;2023-04-12T07:23:38;0.93;;;0.77;;
16484;SDS011;8353;47.856;12.344;2023-04-12T07:26:25;2.07;;;0.97;;
16484;SDS011;8353;47.856;12.344;2023-04-12T07:29:12;0.80;;;0.80;;
16484;SDS011;8353;47.856;12.344;2023-04-12T07:32:00;0.70;;;0.70;;
16484;SDS011;8353;47.856;12.344;2023-04-12T07:34:47;1.37;;;0.73;;
16484;SDS011;8353;47.856;12.344;2023-04-12T07:37:35;0.87;;;0.70;;
16484;SDS011;8353;47.856;12.344;2023-04-12T07:40:24;0.73;;;0.73;;
16484;SDS011;8353;47.856;12.344;2023-04-12T07:43:11;1.77;;;0.80;;
16484;SDS011;8353;47.856;12.344;2023-04-12T07:45:58;1.20;;;0.93;;
16484;SDS011;8353;47.856;12.344;2023-04-12T07:48:49;2.40;;;0.63;;
16484;SDS011;8353;47.856;12.344;2023-04-12T07:51:36;2.00;;;1.00;;
16484;SDS011;8353;47.856;12.344;2023-04-12T07:54:26;2.70;;;1.60;;
16484;SDS011;8353;47.856;12.344;2023-04-12T07:57:13;2.10;;;1.50;;
16484;SDS011;8353;47.856;12.344;2023-04-12T08:00:00;2.53;;;1.57;;
16484;SDS011;8353;47.856;12.344;2023-04-12T08:02:50;1.30;;;1.20;;
16484;SDS011;8353;47.856;12.344;2023-04-12T08:05:36;2.97;;;1.40;;
16484;SDS011;8353;47.856;12.344;2023-04-12T08:08:23;2.50;;;1.23;;
16484;SDS011;8353;47.856;12.344;2023-04-12T08:11:17;1.97;;;0.90;;
16484;SDS011;8353;47.856;12.344;2023-04-12T08:14:03;2.20;;;1.07;;
16484;SDS011;8353;47.856;12.344;2023-04-12T08:16:50;1.67;;;1.00;;
16484;SDS011;8353;47.856;12.344;2023-04-12T08:19:37;1.57;;;1.00;;
16484;SDS011;8353;47.856;12.344;2023-04-12T08:22:24;2.57;;;1.07;;
16484;SDS011;8353;47.856;12.344;2023-04-12T08:25:11;2.40;;;1.03;;
16484;SDS011;8353;47.856;12.344;2023-04-12T08:28:00;2.03;;;1.13;;
16484;SDS011;8353;47.856;12.344;2023-04-12T08:30:49;1.73;;;1.00;;
16484;SDS011;8353;47.856;12.344;2023-04-12T08:33:38;1.50;;;1.20;;
16484;SDS011;8353;47.856;12.344;2023-04-12T08:36:26;2.03;;;1.20;;
16484;SDS011;8353;47.856;12.344;2023-04-12T08:39:13;1.57;;;1.20;;
16484;SDS011;8353;47.856;12.344;2023-04-12T08:42:00;1.73;;;1.23;;
16484;SDS011;8353;47.856;12.344;2023-04-12T08:44:50;1.03;;;1.03;;
16484;SDS011;8353;47.856;12.344;2023-04-12T08:47:39;1.97;;;1.00;;
16484;SDS011;8353;47.856;12.344;2023-04-12T08:50:27;1.70;;;1.10;;
16484;SDS011;8353;47.856;12.344;2023-04-12T08:53:16;1.27;;;0.90;;
16484;SDS011;8353;47.856;12.344;2023-04-12T08:56:05;1.60;;;1.50;;
16484;SDS011;8353;47.856;12.344;2023-04-12T08:58:55;2.00;;;1.20;;
16484;SDS011;8353;47.856;12.344;2023-04-12T09:01:45;1.53;;;1.20;;
16484;SDS011;8353;47.856;12.344;2023-04-12T09:04:32;1.63;;;1.03;;
16484;SDS011;8353;47.856;12.344;2023-04-12T09:07:19;1.40;;;1.00;;
16484;SDS011;8353;47.856;12.344;2023-04-12T09:10:07;1.80;;;1.17;;
16484;SDS011;8353;47.856;12.344;2023-04-12T09:12:55;1.30;;;1.00;;
16484;SDS011;8353;47.856;12.344;2023-04-12T09:15:48;2.00;;;1.37;;
16484;SDS011;8353;47.856;12.344;2023-04-12T09:18:43;2.17;;;1.83;;
16484;SDS011;8353;47.856;12.344;2023-04-12T09:21:34;1.00;;;0.90;;
16484;SDS011;8353;47.856;12.344;2023-04-12T09:24:21;1.47;;;1.10;;
16484;SDS011;8353;47.856;12.344;2023-04-12T09:27:09;1.40;;;1.30;;
16484;SDS011;8353;47.856;12.344;2023-04-12T09:30:05;1.33;;;1.00;;
16484;SDS011;8353;47.856;12.344;2023-04-12T09:33:01;1.37;;;1.20;;
16484;SDS011;8353;47.856;12.344;2023-04-12T09:36:00;0.90;;;0.90;;
16484;SDS011;8353;47.856;12.344;2023-04-12T09:38:57;1.73;;;1.10;;
16484;SDS011;8353;47.856;12.344;2023-04-12T09:41:45;2.00;;;1.20;;
16484;SDS011;8353;47.856;12.344;2023-04-12T09:44:32;2.60;;;1.20;;
16484;SDS011;8353;47.856;12.344;2023-04-12T09:47:19;1.70;;;1.03;;
16484;SDS011;8353;47.856;12.344;2023-04-12T09:50:07;1.47;;;1.30;;
16484;SDS011;8353;47.856;12.344;2023-04-12T09:52:56;1.83;;;1.60;;
16484;SDS011;8353;47.856;12.344;2023-04-12T09:55:44;1.67;;;1.23;;
16484;SDS011;8353;47.856;12.344;2023-04-12T09:58:34;1.10;;;1.00;;
16484;SDS011;8353;47.856;12.344;2023-04-12T10:01:22;1.70;;;1.00;;
16484;SDS011;8353;47.856;12.344;2023-04-12T10:04:10;1.60;;;1.10;;
16484;SDS011;8353;47.856;12.344;2023-04-12T10:06:59;1.37;;;0.73;;
16484;SDS011;8353;47.856;12.344;2023-04-12T10:09:48;2.23;;;0.80;;
16484;SDS011;8353;47.856;12.344;2023-04-12T10:12:36;1.37;;;1.00;;
16484;SDS011;8353;47.856;12.344;2023-04-12T10:15:25;1.37;;;0.90;;
16484;SDS011;8353;47.856;12.344;2023-04-12T10:18:15;1.23;;;0.93;;
16484;SDS011;8353;47.856;12.344;2023-04-12T10:21:04;2.50;;;1.10;;
16484;SDS011;8353;47.856;12.344;2023-04-12T10:23:54;1.73;;;1.20;;
16484;SDS011;8353;47.856;12.344;2023-04-12T10:26:43;1.43;;;0.87;;
16484;SDS011;8353;47.856;12.344;2023-04-12T10:29:30;1.03;;;0.83;;
16484;SDS011;8353;47.856;12.344;2023-04-12T10:32:21;1.30;;;0.80;;
16484;SDS011;8353;47.856;12.344;2023-04-12T10:35:09;1.77;;;0.80;;
16484;SDS011;8353;47.856;12.344;2023-04-12T10:37:58;1.03;;;0.90;;
16484;SDS011;8353;47.856;12.344;2023-04-12T10:47:12;1.30;;;0.70;;
16484;SDS011;8353;47.856;12.344;2023-04-12T10:50:21;1.57;;;1.00;;
16484;SDS011;8353;47.856;12.344;2023-04-12T10:53:22;0.73;;;0.50;;
16484;SDS011;8353;47.856;12.344;2023-04-12T10:59:20;0.87;;;0.63;;
16484;SDS011;8353;47.856;12.344;2023-04-12T11:02:09;0.70;;;0.53;;
16484;SDS011;8353;47.856;12.344;2023-04-12T11:05:03;1.00;;;0.97;;
16484;SDS011;8353;47.856;12.344;2023-04-12T11:07:52;1.70;;;0.80;;
16484;SDS011;8353;47.856;12.344;2023-04-12T11:10:40;0.70;;;0.63;;
16484;SDS011;8353;47.856;12.344;2023-04-12T11:13:33;0.90;;;0.70;;
16484;SDS011;8353;47.856;12.344;2023-04-12T11:16:20;0.90;;;0.70;;
16484;SDS011;8353;47.856;12.344;2023-04-12T11:19:09;1.53;;;0.80;;
16484;SDS011;8353;47.856;12.344;2023-04-12T11:22:02;1.10;;;0.70;;
16484;SDS011;8353;47.856;12.344;2023-04-12T11:24:50;1.33;;;0.77;;
16484;SDS011;8353;47.856;12.344;2023-04-12T11:27:39;3.03;;;0.90;;
16484;SDS011;8353;47.856;12.344;2023-04-12T11:30:35;2.43;;;0.80;;
16484;SDS011;8353;47.856;12.344;2023-04-12T11:33:30;1.10;;;0.73;;
16484;SDS011;8353;47.856;12.344;2023-04-12T11:36:21;3.60;;;1.10;;
16484;SDS011;8353;47.856;12.344;2023-04-12T11:39:08;3.60;;;1.10;;
16484;SDS011;8353;47.856;12.344;2023-04-12T11:41:56;1.83;;;0.63;;
16484;SDS011;8353;47.856;12.344;2023-04-12T11:44:43;1.13;;;0.73;;
16484;SDS011;8353;47.856;12.344;2023-04-12T11:47:31;3.53;;;0.90;;
16484;SDS011;8353;47.856;12.344;2023-04-12T11:50:26;2.27;;;0.90;;
16484;SDS011;8353;47.856;12.344;2023-04-12T11:53:16;1.97;;;0.90;;
16484;SDS011;8353;47.856;12.344;2023-04-12T11:56:05;1.43;;;1.13;;
16484;SDS011;8353;47.856;12.344;2023-04-12T11:58:55;0.87;;;0.80;;
16484;SDS011;8353;47.856;12.344;2023-04-12T12:01:43;2.63;;;0.90;;
16484;SDS011;8353;47.856;12.344;2023-04-12T12:04:30;1.23;;;1.00;;
16484;SDS011;8353;47.856;12.344;2023-04-12T12:07:17;2.15;;;1.30;;
16484;SDS011;8353;47.856;12.344;2023-04-12T12:10:08;2.67;;;1.50;;
16484;SDS011;8353;47.856;12.344;2023-04-12T12:12:57;3.42;;;1.58;;
16484;SDS011;8353;47.856;12.344;2023-04-12T12:15:43;2.58;;;1.60;;
16484;SDS011;8353;47.856;12.344;2023-04-12T12:18:31;6.65;;;1.30;;
16484;SDS011;8353;47.856;12.344;2023-04-12T12:21:19;2.97;;;1.70;;
16484;SDS011;8353;47.856;12.344;2023-04-12T12:24:10;1.63;;;1.30;;
16484;SDS011;8353;47.856;12.344;2023-04-12T12:27:02;4.03;;;1.30;;
16484;SDS011;8353;47.856;12.344;2023-04-12T12:29:49;1.30;;;1.20;;
16484;SDS011;8353;47.856;12.344;2023-04-12T12:32:40;2.08;;;1.20;;
16484;SDS011;8353;47.856;12.344;2023-04-12T12:35:27;1.63;;;1.10;;
16484;SDS011;8353;47.856;12.344;2023-04-12T12:38:16;1.50;;;1.30;;
16484;SDS011;8353;47.856;12.344;2023-04-12T12:41:14;5.35;;;2.10;;
16484;SDS011;8353;47.856;12.344;2023-04-12T12:44:03;3.10;;;1.30;;
16484;SDS011;8353;47.856;12.344;2023-04-12T12:46:54;1.35;;;1.25;;
16484;SDS011;8353;47.856;12.344;2023-04-12T12:49:43;3.20;;;1.45;;
16484;SDS011;8353;47.856;12.344;2023-04-12T12:52:31;0.95;;;0.88;;
16484;SDS011;8353;47.856;12.344;2023-04-12T12:55:18;1.17;;;1.10;;
16484;SDS011;8353;47.856;12.344;2023-04-12T12:58:06;2.35;;;1.15;;
16484;SDS011;8353;47.856;12.344;2023-04-12T13:00:56;1.75;;;1.63;;
16484;SDS011;8353;47.856;12.344;2023-04-12T13:03:43;1.52;;;1.00;;
16484;SDS011;8353;47.856;12.344;2023-04-12T13:06:32;2.55;;;1.13;;
16484;SDS011;8353;47.856;12.344;2023-04-12T13:09:19;3.45;;;1.70;;
16484;SDS011;8353;47.856;12.344;2023-04-12T13:12:06;3.47;;;1.60;;
16484;SDS011;8353;47.856;12.344;2023-04-12T13:14:53;1.05;;;0.95;;
16484;SDS011;8353;47.856;12.344;2023-04-12T13:17:41;2.92;;;1.10;;
16484;SDS011;8353;47.856;12.344;2023-04-12T13:20:28;0.93;;;0.88;;
16484;SDS011;8353;47.856;12.344;2023-04-12T13:23:15;1.13;;;0.93;;
16484;SDS011;8353;47.856;12.344;2023-04-12T13:26:02;1.08;;;0.98;;
16484;SDS011;8353;47.856;12.344;2023-04-12T13:28:50;1.67;;;0.93;;
16484;SDS011;8353;47.856;12.344;2023-04-12T13:31:37;2.20;;;1.00;;
16484;SDS011;8353;47.856;12.344;2023-04-12T13:34:25;1.20;;;0.82;;
16484;SDS011;8353;47.856;12.344;2023-04-12T13:37:13;1.65;;;0.82;;
16484;SDS011;8353;47.856;12.344;2023-04-12T13:40:00;1.63;;;0.88;;
16484;SDS011;8353;47.856;12.344;2023-04-12T13:42:47;1.98;;;1.35;;
16484;SDS011;8353;47.856;12.344;2023-04-12T13:45:34;2.55;;;1.00;;
16484;SDS011;8353;47.856;12.344;2023-04-12T13:48:21;1.30;;;1.00;;
16484;SDS011;8353;47.856;12.344;2023-04-12T13:51:12;4.43;;;1.95;;
16484;SDS011;8353;47.856;12.344;2023-04-12T13:53:59;0.98;;;0.80;;
16484;SDS011;8353;47.856;12.344;2023-04-12T13:56:46;1.42;;;0.85;;
16484;SDS011;8353;47.856;12.344;2023-04-12T13:59:33;2.00;;;0.90;;
16484;SDS011;8353;47.856;12.344;2023-04-12T14:02:20;1.30;;;1.08;;
16484;SDS011;8353;47.856;12.344;2023-04-12T14:05:08;2.55;;;1.75;;
16484;SDS011;8353;47.856;12.344;2023-04-12T14:07:56;0.60;;;0.60;;
16484;SDS011;8353;47.856;12.344;2023-04-12T14:10:45;0.50;;;0.50;;
16484;SDS011;8353;47.856;12.344;2023-04-12T14:13:32;0.70;;;0.70;;
16484;SDS011;8353;47.856;12.344;2023-04-12T14:16:19;1.88;;;1.20;;
16484;SDS011;8353;47.856;12.344;2023-04-12T14:19:06;2.05;;;0.95;;
16484;SDS011;8353;47.856;12.344;2023-04-12T14:21:53;1.20;;;0.80;;
16484;SDS011;8353;47.856;12.344;2023-04-12T14:24:42;1.30;;;1.20;;
16484;SDS011;8353;47.856;12.344;2023-04-12T14:27:29;1.75;;;1.05;;
16484;SDS011;8353;47.856;12.344;2023-04-12T14:30:17;1.30;;;0.70;;
16484;SDS011;8353;47.856;12.344;2023-04-12T14:33:04;2.22;;;1.00;;
16484;SDS011;8353;47.856;12.344;2023-04-12T14:35:52;2.15;;;1.10;;
16484;SDS011;8353;47.856;12.344;2023-04-12T14:38:39;1.77;;;1.20;;
16484;SDS011;8353;47.856;12.344;2023-04-12T14:41:28;2.05;;;1.08;;
16484;SDS011;8353;47.856;12.344;2023-04-12T14:44:15;2.65;;;1.13;;
16484;SDS011;8353;47.856;12.344;2023-04-12T14:47:04;2.33;;;1.30;;
16484;SDS011;8353;47.856;12.344;2023-04-12T14:49:51;1.48;;;1.25;;
16484;SDS011;8353;47.856;12.344;2023-04-12T14:52:38;1.83;;;1.00;;
16484;SDS011;8353;47.856;12.344;2023-04-12T14:55:25;1.58;;;1.33;;
16484;SDS011;8353;47.856;12.344;2023-04-12T14:58:14;3.17;;;1.35;;
16484;SDS011;8353;47.856;12.344;2023-04-12T15:01:03;2.20;;;1.27;;
16484;SDS011;8353;47.856;12.344;2023-04-12T15:03:52;4.80;;;1.30;;
16484;SDS011;8353;47.856;12.344;2023-04-12T15:06:42;1.77;;;1.38;;
16484;SDS011;8353;47.856;12.344;2023-04-12T15:09:29;1.77;;;1.05;;
16484;SDS011;8353;47.856;12.344;2023-04-12T15:12:19;1.42;;;1.00;;
16484;SDS011;8353;47.856;12.344;2023-04-12T15:15:08;1.38;;;1.08;;
16484;SDS011;8353;47.856;12.344;2023-04-12T15:17:55;1.10;;;1.00;;
16484;SDS011;8353;47.856;12.344;2023-04-12T15:20:44;1.10;;;0.80;;
16484;SDS011;8353;47.856;12.344;2023-04-12T15:23:31;2.40;;;1.15;;
16484;SDS011;8353;47.856;12.344;2023-04-12T15:26:18;1.73;;;1.13;;
16484;SDS011;8353;47.856;12.344;2023-04-12T15:29:06;2.50;;;1.20;;
16484;SDS011;8353;47.856;12.344;2023-04-12T15:31:55;2.10;;;1.35;;
16484;SDS011;8353;47.856;12.344;2023-04-12T15:34:42;1.23;;;1.08;;
16484;SDS011;8353;47.856;12.344;2023-04-12T15:37:29;1.05;;;0.82;;
16484;SDS011;8353;47.856;12.344;2023-04-12T15:40:19;0.93;;;0.82;;
16484;SDS011;8353;47.856;12.344;2023-04-12T15:43:06;1.45;;;0.80;;
16484;SDS011;8353;47.856;12.344;2023-04-12T15:45:53;1.67;;;1.40;;
16484;SDS011;8353;47.856;12.344;2023-04-12T15:48:42;2.28;;;1.00;;
16484;SDS011;8353;47.856;12.344;2023-04-12T15:51:30;1.15;;;0.75;;
16484;SDS011;8353;47.856;12.344;2023-04-12T15:54:17;1.25;;;1.00;;
16484;SDS011;8353;47.856;12.344;2023-04-12T15:57:04;0.75;;;0.75;;
16484;SDS011;8353;47.856;12.344;2023-04-12T15:59:53;0.80;;;0.77;;
16484;SDS011;8353;47.856;12.344;2023-04-12T16:02:43;1.55;;;0.60;;
16484;SDS011;8353;47.856;12.344;2023-04-12T16:05:35;0.55;;;0.50;;
16484;SDS011;8353;47.856;12.344;2023-04-12T16:08:22;2.17;;;0.80;;
16484;SDS011;8353;47.856;12.344;2023-04-12T16:11:11;0.93;;;0.90;;
16484;SDS011;8353;47.856;12.344;2023-04-12T16:13:58;1.85;;;1.40;;
16484;SDS011;8353;47.856;12.344;2023-04-12T16:16:45;3.20;;;1.10;;
16484;SDS011;8353;47.856;12.344;2023-04-12T16:19:32;3.00;;;1.27;;
16484;SDS011;8353;47.856;12.344;2023-04-12T16:22:21;2.38;;;1.17;;
16484;SDS011;8353;47.856;12.344;2023-04-12T16:25:08;2.83;;;1.20;;
16484;SDS011;8353;47.856;12.344;2023-04-12T16:27:56;1.63;;;0.90;;
16484;SDS011;8353;47.856;12.344;2023-04-12T16:30:46;1.55;;;1.00;;
16484;SDS011;8353;47.856;12.344;2023-04-12T16:33:34;1.10;;;1.00;;
16484;SDS011;8353;47.856;12.344;2023-04-12T16:36:21;2.50;;;1.30;;
16484;SDS011;8353;47.856;12.344;2023-04-12T16:39:09;2.47;;;1.23;;
16484;SDS011;8353;47.856;12.344;2023-04-12T16:41:58;2.60;;;1.48;;
16484;SDS011;8353;47.856;12.344;2023-04-12T16:44:46;2.70;;;1.52;;
16484;SDS011;8353;47.856;12.344;2023-04-12T16:47:33;1.75;;;1.30;;
16484;SDS011;8353;47.856;12.344;2023-04-12T16:50:21;1.10;;;1.00;;
16484;SDS011;8353;47.856;12.344;2023-04-12T16:53:09;1.10;;;1.00;;
16484;SDS011;8353;47.856;12.344;2023-04-12T16:56:00;2.67;;;1.52;;
16484;SDS011;8353;47.856;12.344;2023-04-12T16:58:46;2.15;;;1.30;;
16484;SDS011;8353;47.856;12.344;2023-04-12T17:01:34;1.17;;;1.08;;
16484;SDS011;8353;47.856;12.344;2023-04-12T17:04:21;2.53;;;1.00;;
16484;SDS011;8353;47.856;12.344;2023-04-12T17:07:09;2.03;;;1.20;;